createdAt,value
2023-10-19T00:12:39.098Z,22.00
2023-10-19T00:27:31.613Z,22.63
2023-10-19T00:42:26.409Z,20.79
2023-10-19T00:57:21.409Z,20.64
2023-10-19T01:12:23.381Z,20.60
2023-10-19T01:27:19.990Z,19.60
2023-10-19T01:42:11.742Z,20.28
2023-10-19T01:57:04.270Z,17.98
2023-10-19T02:11:57.311Z,19.32
2023-10-19T02:56:34.232Z,17.36
2023-10-19T03:11:27.127Z,18.37
2023-10-19T03:41:25.703Z,17.02
2023-10-19T03:56:19.038Z,19.12
2023-10-19T04:11:14.463Z,18.54
2023-10-19T04:26:12.341Z,16.14
2023-10-19T04:41:09.627Z,16.31
2023-10-19T04:56:05.587Z,17.57
2023-10-19T05:10:58.887Z,17.07
2023-10-19T05:25:50.539Z,14.52
2023-10-19T05:55:34.376Z,16.18
2023-10-19T06:10:26.492Z,17.20
2023-10-19T06:25:18.897Z,18.64
2023-10-19T06:55:06.330Z,19.54
2023-10-19T07:10:01.741Z,21.97
2023-10-19T07:24:54.694Z,18.69
2023-10-19T07:39:47.219Z,19.52
2023-10-19T07:54:40.577Z,19.99
2023-10-19T08:39:30.422Z,15.94
2023-10-19T08:54:23.845Z,15.97
2023-10-19T09:24:15.833Z,14.72
2023-10-19T09:39:07.953Z,9.93
2023-10-19T09:54:01.361Z,9.42
2023-10-19T10:08:54.275Z,8.30
2023-10-19T10:23:49.476Z,9.49
2023-10-19T10:38:44.048Z,12.37
2023-10-19T10:53:36.221Z,11.92
2023-10-19T11:08:28.380Z,13.79
2023-10-19T11:23:21.312Z,15.91
2023-10-19T11:38:13.818Z,13.40
2023-10-19T11:53:06.868Z,18.60
2023-10-19T12:08:00.163Z,17.40
2023-10-19T12:22:53.267Z,13.78
2023-10-19T12:37:47.220Z,15.39
2023-10-19T12:52:39.761Z,16.86
2023-10-19T13:07:33.899Z,15.41
2023-10-19T13:22:28.077Z,16.17
2023-10-19T13:37:20.613Z,16.36
2023-10-19T13:52:13.134Z,20.04
2023-10-19T14:07:09.626Z,21.33
2023-10-19T14:22:02.357Z,20.68
2023-10-19T14:36:55.722Z,18.98
2023-10-19T14:51:48.449Z,15.12
2023-10-19T16:21:10.390Z,15.30
2023-10-19T18:50:36.156Z,16.27
2023-10-19T19:35:17.467Z,13.01
2023-10-19T19:50:10.368Z,9.16
2023-10-19T20:05:02.334Z,10.70
2023-10-19T20:19:55.494Z,8.79
2023-10-19T20:34:47.666Z,7.51
2023-10-19T21:04:51.134Z,6.53
2023-10-19T21:19:42.893Z,7.40
2023-10-19T21:34:35.671Z,8.21
2023-10-19T21:49:28.803Z,7.64
2023-10-19T22:04:20.530Z,7.37
2023-10-19T22:19:12.196Z,4.09
2023-10-19T22:34:04.063Z,7.39
2023-10-19T22:48:56.665Z,7.37
2023-10-19T23:03:49.611Z,5.47
2023-10-19T23:18:43.025Z,4.32
2023-10-19T23:33:35.916Z,4.54
2023-10-19T23:48:27.680Z,2.91
